createdAt,value
2018-03-17T00:00:26.674Z,94.23
2018-03-17T00:01:26.592Z,94.51
2018-03-17T00:02:26.509Z,94.23
2018-03-17T00:03:26.429Z,94.13
2018-03-17T00:04:26.345Z,94.51
2018-03-17T00:05:26.266Z,94.32
2018-03-17T00:06:26.184Z,94.23
2018-03-17T00:07:26.099Z,94.23
2018-03-17T00:08:26.018Z,94.89
2018-03-17T00:09:25.938Z,94.37
2018-03-17T00:10:25.854Z,94.37
2018-03-17T00:11:25.770Z,94.13
2018-03-17T00:12:25.695Z,94.18
2018-03-17T00:13:25.609Z,94.98
2018-03-17T00:14:25.562Z,94.98
2018-03-17T00:15:25.444Z,94.98
2018-03-17T00:16:25.368Z,94.70
2018-03-17T00:17:25.282Z,95.17
2018-03-17T00:18:25.200Z,94.79
2018-03-17T00:19:25.164Z,94.98
2018-03-17T00:20:25.036Z,94.79
2018-03-17T00:21:24.956Z,94.65
2018-03-17T00:22:24.875Z,95.03
2018-03-17T00:23:24.791Z,94.60
2018-03-17T00:24:24.708Z,94.84
2018-03-17T00:25:24.628Z,94.84
2018-03-17T00:26:24.564Z,94.23
2018-03-17T00:27:24.463Z,94.84
2018-03-17T00:28:24.390Z,94.65
2018-03-17T00:29:24.302Z,94.74
2018-03-17T00:30:24.214Z,94.74
2018-03-17T00:31:24.144Z,94.27
2018-03-17T00:32:24.053Z,94.56
2018-03-17T00:33:23.973Z,94.37
2018-03-17T00:34:23.890Z,94.37
2018-03-17T00:35:23.808Z,94.18
2018-03-17T00:36:23.725Z,94.37
2018-03-17T00:37:23.643Z,93.99
2018-03-17T00:38:23.560Z,94.56
2018-03-17T00:39:23.479Z,94.27
2018-03-17T00:40:23.400Z,94.74
2018-03-17T00:41:23.317Z,93.60
2018-03-17T00:42:23.237Z,94.84
2018-03-17T00:43:23.152Z,94.27
2018-03-17T00:44:23.071Z,95.12
2018-03-17T00:45:22.990Z,94.65
2018-03-17T00:46:22.906Z,94.65
2018-03-17T00:47:22.824Z,94.93
2018-03-17T00:48:22.744Z,94.18
2018-03-17T00:49:22.661Z,93.70
2018-03-17T00:50:22.583Z,94.18
2018-03-17T00:51:22.501Z,93.60
2018-03-17T00:52:22.417Z,93.80
2018-03-17T00:53:22.335Z,93.99
2018-03-17T00:54:22.253Z,93.89
2018-03-17T00:55:22.173Z,93.99
2018-03-17T00:56:22.090Z,94.65
2018-03-17T00:57:22.008Z,94.18
2018-03-17T00:58:21.929Z,94.74
2018-03-17T00:59:21.844Z,94.46
2018-03-17T01:00:21.768Z,93.99
2018-03-17T01:01:21.680Z,94.18
2018-03-17T01:02:21.600Z,94.56
2018-03-17T01:03:21.520Z,94.37
2018-03-17T01:04:21.435Z,94.37
2018-03-17T01:05:21.356Z,94.18
2018-03-17T01:06:21.274Z,94.18
2018-03-17T01:07:21.189Z,94.08
2018-03-17T01:08:21.108Z,94.27
2018-03-17T01:09:21.028Z,93.99
2018-03-17T01:10:20.944Z,94.37
2018-03-17T01:11:20.867Z,93.99
2018-03-17T01:12:20.782Z,93.99
2018-03-17T01:13:20.702Z,93.60
2018-03-17T01:14:20.620Z,94.56
2018-03-17T01:15:20.538Z,94.74
2018-03-17T01:16:20.459Z,94.65
2018-03-17T01:17:20.375Z,94.93
2018-03-17T01:18:20.292Z,94.74
2018-03-17T01:19:20.210Z,95.12
2018-03-17T01:20:20.129Z,94.74
2018-03-17T01:21:20.054Z,94.74
2018-03-17T01:22:19.968Z,95.03
2018-03-17T01:23:19.882Z,95.12
2018-03-17T01:24:19.803Z,94.74
2018-03-17T01:25:19.720Z,95.12
2018-03-17T01:26:19.658Z,94.84
2018-03-17T01:27:19.558Z,95.12
2018-03-17T01:28:19.475Z,94.37
2018-03-17T01:29:19.394Z,94.74
2018-03-17T01:30:19.311Z,94.37
2018-03-17T01:31:19.231Z,95.03
2018-03-17T01:32:19.148Z,94.93
2018-03-17T01:33:19.079Z,95.51
2018-03-17T01:34:18.985Z,95.51
2018-03-17T01:35:18.903Z,95.41
2018-03-17T01:36:18.820Z,95.31
2018-03-17T01:37:18.740Z,95.51
2018-03-17T01:38:18.666Z,94.93
2018-03-17T01:39:18.575Z,95.51
2018-03-17T01:40:18.494Z,95.51
2018-03-17T01:41:18.413Z,95.70
2018-03-17T01:42:18.330Z,95.31
2018-03-17T01:43:18.249Z,95.31
2018-03-17T01:44:18.178Z,96.08
2018-03-17T01:45:18.084Z,95.60
2018-03-17T01:46:18.004Z,95.70
2018-03-17T01:47:17.922Z,95.70
2018-03-17T01:48:17.841Z,95.22
2018-03-17T01:49:17.760Z,95.79
2018-03-17T01:50:17.677Z,96.36
2018-03-17T01:51:17.595Z,96.36
2018-03-17T01:52:17.517Z,96.55
2018-03-17T01:53:17.435Z,96.36
2018-03-17T01:54:17.351Z,96.08
2018-03-17T01:55:17.269Z,96.45
2018-03-17T01:56:17.187Z,96.17
2018-03-17T01:57:17.108Z,96.17
2018-03-17T01:58:17.025Z,96.45
2018-03-17T01:59:16.941Z,96.36
2018-03-17T02:00:16.860Z,95.89
2018-03-17T02:01:16.780Z,96.36
2018-03-17T02:02:16.697Z,95.89
2018-03-17T02:03:16.615Z,95.89
2018-03-17T02:04:16.533Z,95.70
2018-03-17T02:05:16.454Z,95.70
2018-03-17T02:06:16.423Z,95.70
2018-03-17T02:07:16.335Z,95.22
2018-03-17T02:08:16.208Z,95.03
2018-03-17T02:09:16.126Z,95.60
2018-03-17T02:10:16.098Z,95.31
2018-03-17T02:11:15.966Z,95.41
2018-03-17T02:12:15.883Z,95.12
2018-03-17T02:13:15.801Z,95.89
2018-03-17T02:14:15.723Z,95.41
2018-03-17T02:15:15.633Z,95.31
2018-03-17T02:16:15.552Z,95.31
2018-03-17T02:17:15.470Z,95.51
2018-03-17T02:18:15.388Z,95.31
2018-03-17T02:19:15.306Z,95.03
2018-03-17T02:20:15.224Z,95.31
2018-03-17T02:21:15.144Z,95.22
2018-03-17T02:22:15.104Z,95.03
2018-03-17T02:23:14.983Z,95.31
2018-03-17T02:24:14.920Z,95.03
2018-03-17T02:25:14.815Z,94.65
2018-03-17T02:26:14.735Z,95.03
2018-03-17T02:27:14.651Z,94.74
2018-03-17T02:28:14.572Z,94.70
2018-03-17T02:29:14.490Z,94.93
2018-03-17T02:30:14.409Z,94.70
2018-03-17T02:31:14.324Z,94.89
2018-03-17T02:32:14.259Z,94.89
2018-03-17T02:33:14.160Z,94.70
2018-03-17T02:34:14.081Z,94.89
2018-03-17T02:35:13.999Z,94.60
2018-03-17T02:36:13.915Z,94.42
2018-03-17T02:37:13.837Z,94.51
2018-03-17T02:38:13.755Z,95.07
2018-03-17T02:39:13.671Z,94.70
2018-03-17T02:40:13.588Z,95.17
2018-03-17T02:41:13.505Z,94.89
2018-03-17T02:42:13.423Z,95.17
2018-03-17T02:43:13.356Z,95.07
2018-03-17T02:44:13.301Z,95.46
2018-03-17T02:45:13.185Z,94.89
2018-03-17T02:46:13.094Z,95.07
2018-03-17T02:47:13.014Z,94.60
2018-03-17T02:48:12.930Z,94.89
2018-03-17T02:49:12.849Z,95.17
2018-03-17T02:50:12.771Z,95.55
2018-03-17T02:51:12.684Z,95.55
2018-03-17T02:52:12.621Z,95.17
2018-03-17T02:53:12.520Z,95.55
2018-03-17T02:54:12.437Z,95.65
2018-03-17T02:55:12.358Z,95.46
2018-03-17T02:56:12.273Z,94.98
2018-03-17T02:57:12.191Z,95.07
2018-03-17T02:58:12.111Z,95.17
2018-03-17T02:59:12.089Z,95.36
2018-03-17T03:00:11.953Z,95.55
2018-03-17T03:01:11.867Z,95.84
2018-03-17T03:02:11.785Z,95.17
2018-03-17T03:03:11.700Z,95.07
2018-03-17T03:04:11.622Z,94.70
2018-03-17T03:05:11.534Z,94.70
2018-03-17T03:06:11.453Z,94.70
2018-03-17T03:07:11.368Z,94.70
2018-03-17T03:08:11.297Z,94.98
2018-03-17T03:09:11.205Z,95.65
2018-03-17T03:10:11.122Z,95.46
2018-03-17T03:11:11.039Z,94.79
2018-03-17T03:12:10.958Z,94.51
2018-03-17T03:13:10.894Z,94.60
2018-03-17T03:14:10.793Z,94.70
2018-03-17T03:15:10.712Z,94.70
2018-03-17T03:16:10.629Z,94.27
2018-03-17T03:17:10.546Z,94.60
2018-03-17T03:18:10.461Z,95.03
2018-03-17T03:19:10.386Z,94.79
2018-03-17T03:20:10.298Z,95.55
2018-03-17T03:21:10.219Z,95.36
2018-03-17T03:22:10.132Z,95.03
2018-03-17T03:23:10.080Z,95.03
2018-03-17T03:24:09.968Z,94.65
2018-03-17T03:25:09.888Z,95.12
2018-03-17T03:26:09.802Z,94.74
2018-03-17T03:27:09.721Z,94.46
2018-03-17T03:28:09.640Z,94.74
2018-03-17T03:29:09.560Z,94.65
2018-03-17T03:30:09.475Z,94.65
2018-03-17T03:31:09.409Z,94.56
2018-03-17T03:32:09.309Z,94.93
2018-03-17T03:33:09.229Z,95.03
2018-03-17T03:34:09.143Z,94.37
2018-03-17T03:35:09.077Z,94.46
2018-03-17T03:36:08.979Z,94.65
2018-03-17T03:37:08.899Z,95.03
2018-03-17T03:38:08.813Z,94.65
2018-03-17T03:39:08.732Z,94.84
2018-03-17T03:40:08.648Z,94.65
2018-03-17T03:41:08.568Z,94.93
2018-03-17T03:42:08.483Z,94.84
2018-03-17T03:43:08.401Z,94.56
2018-03-17T03:44:08.317Z,94.84
2018-03-17T03:45:08.237Z,95.03
2018-03-17T03:46:08.152Z,95.03
2018-03-17T03:47:08.071Z,94.84
2018-03-17T03:48:07.996Z,94.93
2018-03-17T03:49:07.903Z,95.50
2018-03-17T03:50:07.824Z,94.93
2018-03-17T03:51:07.740Z,95.50
2018-03-17T03:52:07.655Z,95.22
2018-03-17T03:53:07.595Z,95.12
2018-03-17T03:54:07.490Z,95.50
2018-03-17T03:55:07.407Z,95.31
2018-03-17T03:56:07.325Z,95.50
2018-03-17T03:57:07.241Z,95.22
2018-03-17T03:58:07.157Z,95.41
2018-03-17T03:59:07.076Z,95.41
2018-03-17T04:00:06.993Z,95.22
2018-03-17T04:01:06.908Z,95.22
2018-03-17T04:02:06.845Z,95.31
2018-03-17T04:03:06.745Z,95.22
2018-03-17T04:04:06.663Z,95.41
2018-03-17T04:05:06.579Z,95.41
2018-03-17T04:06:06.496Z,95.60
2018-03-17T04:07:06.413Z,95.55
2018-03-17T04:08:06.330Z,95.60
2018-03-17T04:09:06.245Z,96.22
2018-03-17T04:10:06.162Z,95.84
2018-03-17T04:11:06.080Z,96.22
2018-03-17T04:12:06.002Z,96.59
2018-03-17T04:13:05.914Z,96.22
2018-03-17T04:14:05.838Z,96.64
2018-03-17T04:15:05.748Z,95.93
2018-03-17T04:16:05.668Z,96.31
2018-03-17T04:17:05.581Z,96.36
2018-03-17T04:18:05.499Z,96.22
2018-03-17T04:19:05.416Z,96.59
2018-03-17T04:20:05.332Z,96.03
2018-03-17T04:21:05.249Z,95.93
2018-03-17T04:22:05.167Z,96.59
2018-03-17T04:23:05.093Z,96.59
2018-03-17T04:24:05.001Z,96.22
2018-03-17T04:25:04.919Z,96.78
2018-03-17T04:26:04.835Z,96.22
2018-03-17T04:27:04.751Z,96.50
2018-03-17T04:28:04.668Z,96.31
2018-03-17T04:29:04.586Z,96.78
2018-03-17T04:30:04.501Z,96.69
2018-03-17T04:31:04.417Z,96.69
2018-03-17T04:32:04.334Z,96.31
2018-03-17T04:33:04.259Z,96.88
2018-03-17T04:34:04.168Z,96.59
2018-03-17T04:35:04.085Z,96.69
2018-03-17T04:36:04.001Z,96.78
2018-03-17T04:37:03.918Z,96.69
2018-03-17T04:38:03.839Z,96.69
2018-03-17T04:39:03.752Z,96.69
2018-03-17T04:40:03.670Z,97.07
2018-03-17T04:41:03.586Z,96.69
2018-03-17T04:42:03.501Z,96.78
2018-03-17T04:43:03.438Z,97.64
2018-03-17T04:44:03.338Z,97.45
2018-03-17T04:45:03.252Z,97.45
2018-03-17T04:46:03.169Z,97.45
2018-03-17T04:47:03.087Z,97.07
2018-03-17T04:48:03.004Z,97.07
2018-03-17T04:49:02.923Z,97.26
2018-03-17T04:50:02.836Z,97.07
2018-03-17T04:51:02.757Z,97.26
2018-03-17T04:52:02.672Z,97.07
2018-03-17T04:53:02.588Z,97.07
2018-03-17T04:54:02.501Z,97.16
2018-03-17T04:55:02.419Z,97.26
2018-03-17T04:56:02.335Z,97.07
2018-03-17T04:57:02.258Z,97.16
2018-03-17T04:58:02.171Z,97.45
2018-03-17T04:59:02.088Z,97.35
2018-03-17T05:00:02.029Z,97.73
2018-03-17T05:01:01.921Z,97.54
2018-03-17T05:02:01.836Z,97.64
2018-03-17T05:03:01.752Z,97.26
2018-03-17T05:04:01.668Z,97.35
2018-03-17T05:05:01.594Z,97.54
2018-03-17T05:06:01.501Z,97.26
2018-03-17T05:07:01.419Z,97.64
2018-03-17T05:08:01.339Z,97.83
2018-03-17T05:09:01.256Z,97.54
2018-03-17T05:10:01.184Z,98.11
2018-03-17T05:11:01.088Z,97.83
2018-03-17T05:12:01.003Z,98.02
2018-03-17T05:13:00.919Z,97.83
2018-03-17T05:14:00.839Z,97.73
2018-03-17T05:15:00.753Z,97.35
2018-03-17T05:16:00.669Z,97.26
2018-03-17T05:17:00.590Z,97.35
2018-03-17T05:18:00.506Z,97.35
2018-03-17T05:19:00.418Z,96.31
2018-03-17T05:20:00.335Z,96.69
2018-03-17T05:21:00.274Z,95.84
2018-03-17T05:22:00.199Z,95.84
2018-03-17T05:23:00.084Z,96.88
2018-03-17T05:24:00.000Z,96.12
2018-03-17T05:24:59.918Z,96.22
2018-03-17T05:25:59.836Z,96.31
2018-03-17T05:26:59.751Z,97.07
2018-03-17T05:27:59.664Z,96.22
2018-03-17T05:28:59.583Z,96.69
2018-03-17T05:29:59.498Z,96.88
2018-03-17T05:30:59.423Z,96.31
2018-03-17T05:31:59.352Z,96.88
2018-03-17T05:32:59.249Z,96.03
2018-03-17T05:33:59.169Z,96.12
2018-03-17T05:34:59.084Z,95.45
2018-03-17T05:35:59.000Z,95.74
2018-03-17T05:36:58.926Z,95.65
2018-03-17T05:37:58.834Z,95.74
2018-03-17T05:38:58.749Z,95.55
2018-03-17T05:39:58.665Z,95.45
2018-03-17T05:40:58.593Z,95.74
2018-03-17T05:41:58.502Z,95.84
2018-03-17T05:42:58.414Z,95.93
2018-03-17T05:43:58.332Z,96.22
2018-03-17T05:44:58.246Z,95.74
2018-03-17T05:45:58.163Z,95.74
2018-03-17T05:46:58.082Z,96.12
2018-03-17T05:47:57.996Z,95.74
2018-03-17T05:48:57.913Z,95.55
2018-03-17T05:49:57.826Z,95.45
2018-03-17T05:50:57.743Z,95.36
2018-03-17T05:51:57.661Z,95.36
2018-03-17T05:52:57.577Z,95.55
2018-03-17T05:53:57.497Z,95.55
2018-03-17T05:54:57.420Z,95.55
2018-03-17T05:55:57.327Z,95.65
2018-03-17T05:56:57.243Z,95.50
2018-03-17T05:57:57.159Z,95.55
2018-03-17T05:58:57.076Z,95.69
2018-03-17T05:59:57.011Z,95.69
2018-03-17T06:00:56.909Z,95.07
2018-03-17T06:01:56.826Z,94.93
2018-03-17T06:02:56.745Z,95.50
2018-03-17T06:03:56.659Z,95.79
2018-03-17T06:04:56.572Z,95.69
2018-03-17T06:05:56.489Z,95.60
2018-03-17T06:06:56.418Z,95.69
2018-03-17T06:07:56.322Z,94.84
2018-03-17T06:08:56.241Z,94.84
2018-03-17T06:09:56.152Z,95.12
2018-03-17T06:10:56.071Z,95.31
2018-03-17T06:11:55.986Z,95.50
2018-03-17T06:12:55.903Z,95.50
2018-03-17T06:13:55.818Z,95.41
2018-03-17T06:14:55.734Z,95.03
2018-03-17T06:15:55.651Z,94.93
2018-03-17T06:16:55.566Z,95.69
2018-03-17T06:17:55.528Z,95.22
2018-03-17T06:18:55.412Z,95.03
2018-03-17T06:19:55.315Z,95.03
2018-03-17T06:20:55.231Z,95.12
2018-03-17T06:21:55.149Z,94.84
2018-03-17T06:22:55.062Z,95.03
2018-03-17T06:23:54.982Z,95.12
2018-03-17T06:24:54.953Z,95.12
2018-03-17T06:25:54.810Z,95.41
2018-03-17T06:26:54.731Z,95.12
2018-03-17T06:27:54.641Z,94.93
2018-03-17T06:28:54.561Z,95.12
2018-03-17T06:29:54.475Z,94.93
2018-03-17T06:30:54.391Z,95.22
2018-03-17T06:31:54.307Z,95.12
2018-03-17T06:32:54.223Z,95.50
2018-03-17T06:33:54.148Z,95.03
2018-03-17T06:34:54.053Z,95.12
2018-03-17T06:35:53.972Z,94.93
2018-03-17T06:36:53.889Z,95.22
2018-03-17T06:37:53.801Z,95.41
2018-03-17T06:38:53.717Z,94.84
2018-03-17T06:39:53.647Z,95.41
2018-03-17T06:40:53.551Z,95.31
2018-03-17T06:41:53.465Z,95.22
2018-03-17T06:42:53.383Z,95.03
2018-03-17T06:43:53.299Z,94.74
2018-03-17T06:44:53.215Z,94.93
2018-03-17T06:45:53.128Z,94.56
2018-03-17T06:46:53.057Z,94.84
2018-03-17T06:47:52.962Z,94.56
2018-03-17T06:48:52.879Z,94.46
2018-03-17T06:49:52.797Z,94.37
2018-03-17T06:50:52.707Z,94.37
2018-03-17T06:51:52.626Z,94.65
2018-03-17T06:52:52.541Z,94.56
2018-03-17T06:53:52.455Z,94.46
2018-03-17T06:54:52.375Z,95.03
2018-03-17T06:55:52.289Z,94.56
2018-03-17T06:56:52.204Z,94.46
2018-03-17T06:57:52.121Z,94.56
2018-03-17T06:58:52.039Z,94.74
2018-03-17T06:59:51.954Z,94.46
2018-03-17T07:00:51.869Z,93.61
2018-03-17T07:01:51.787Z,93.61
2018-03-17T07:02:51.703Z,93.32
2018-03-17T07:03:51.632Z,93.23
2018-03-17T07:04:51.534Z,93.23
2018-03-17T07:05:51.451Z,92.47
2018-03-17T07:06:51.365Z,92.47
2018-03-17T07:07:51.282Z,92.57
2018-03-17T07:08:51.198Z,92.00
2018-03-17T07:09:51.114Z,92.38
2018-03-17T07:10:51.045Z,92.76
2018-03-17T07:11:50.953Z,92.85
2018-03-17T07:12:50.863Z,92.57
2018-03-17T07:13:50.780Z,91.90
2018-03-17T07:14:50.694Z,92.00
2018-03-17T07:15:50.610Z,92.00
2018-03-17T07:16:50.536Z,92.00
2018-03-17T07:17:50.464Z,92.09
2018-03-17T07:18:50.381Z,92.00
2018-03-17T07:19:50.274Z,91.90
2018-03-17T07:20:50.191Z,92.38
2018-03-17T07:21:50.108Z,91.90
2018-03-17T07:22:50.023Z,91.62
2018-03-17T07:23:49.943Z,91.90
2018-03-17T07:24:49.856Z,91.90
2018-03-17T07:25:49.772Z,91.43
2018-03-17T07:26:49.692Z,91.43
2018-03-17T07:27:49.622Z,91.43
2018-03-17T07:28:49.519Z,91.90
2018-03-17T07:29:49.437Z,92.00
2018-03-17T07:30:49.354Z,92.09
2018-03-17T07:31:49.269Z,92.19
2018-03-17T07:32:49.185Z,91.90
2018-03-17T07:33:49.100Z,91.52
2018-03-17T07:34:49.017Z,91.52
2018-03-17T07:35:48.941Z,92.00
2018-03-17T07:36:48.848Z,92.28
2018-03-17T07:37:48.767Z,91.71
2018-03-17T07:38:48.684Z,91.52
2018-03-17T07:39:48.605Z,91.71
2018-03-17T07:40:48.516Z,91.71
2018-03-17T07:41:48.429Z,91.52
2018-03-17T07:42:48.345Z,91.62
2018-03-17T07:43:48.261Z,91.33
2018-03-17T07:44:48.178Z,91.71
2018-03-17T07:45:48.095Z,90.67
2018-03-17T07:46:48.012Z,90.77
2018-03-17T07:47:47.926Z,91.05
2018-03-17T07:48:47.840Z,91.71
2018-03-17T07:49:47.759Z,91.71
2018-03-17T07:50:47.675Z,90.86
2018-03-17T07:51:47.591Z,91.52
2018-03-17T07:52:47.509Z,91.33
2018-03-17T07:53:47.421Z,91.71
2018-03-17T07:54:47.338Z,90.95
2018-03-17T07:55:47.254Z,90.95
2018-03-17T07:56:47.171Z,90.48
2018-03-17T07:57:47.086Z,90.67
2018-03-17T07:58:47.004Z,90.77
2018-03-17T07:59:46.919Z,90.67
2018-03-17T08:00:46.835Z,90.86
2018-03-17T08:01:46.750Z,90.77
2018-03-17T08:02:46.667Z,90.01
2018-03-17T08:03:46.584Z,90.20
2018-03-17T08:04:46.500Z,89.63
2018-03-17T08:05:46.422Z,90.20
2018-03-17T08:06:46.331Z,90.20
2018-03-17T08:07:46.248Z,89.91
2018-03-17T08:08:46.166Z,89.72
2018-03-17T08:09:46.080Z,89.63
2018-03-17T08:10:46.042Z,90.39
2018-03-17T08:11:45.914Z,90.01
2018-03-17T08:12:45.830Z,89.34
2018-03-17T08:13:45.745Z,89.63
2018-03-17T08:14:45.660Z,89.44
2018-03-17T08:15:45.576Z,89.72
2018-03-17T08:16:45.494Z,90.10
2018-03-17T08:17:45.410Z,90.48
2018-03-17T08:18:45.326Z,89.34
2018-03-17T08:19:45.242Z,88.78
2018-03-17T08:20:45.159Z,88.49
2018-03-17T08:21:45.074Z,89.25
2018-03-17T08:22:44.998Z,89.15
2018-03-17T08:23:44.907Z,89.34
2018-03-17T08:24:44.827Z,89.63
2018-03-17T08:25:44.741Z,88.87
2018-03-17T08:26:44.657Z,89.25
2018-03-17T08:27:44.572Z,88.49
2018-03-17T08:28:44.491Z,87.73
2018-03-17T08:29:44.404Z,87.45
2018-03-17T08:30:44.322Z,88.68
2018-03-17T08:31:44.237Z,88.78
2018-03-17T08:32:44.154Z,88.78
2018-03-17T08:33:44.070Z,88.87
2018-03-17T08:34:43.988Z,88.87
2018-03-17T08:35:43.902Z,88.30
2018-03-17T08:36:43.822Z,88.49
2018-03-17T08:37:43.741Z,87.83
2018-03-17T08:38:43.683Z,87.92
2018-03-17T08:39:43.571Z,88.40
2018-03-17T08:40:43.484Z,88.49
2018-03-17T08:41:43.405Z,88.40
2018-03-17T08:42:43.318Z,88.11
2018-03-17T08:43:43.233Z,88.02
2018-03-17T08:44:43.150Z,88.49
2018-03-17T08:45:43.069Z,87.92
2018-03-17T08:46:42.983Z,87.54
2018-03-17T08:47:42.897Z,87.73
2018-03-17T08:48:42.823Z,88.21
2018-03-17T08:49:42.731Z,88.49
2018-03-17T08:50:42.649Z,87.64
2018-03-17T08:51:42.562Z,87.92
2018-03-17T08:52:42.478Z,87.54
2018-03-17T08:53:42.400Z,87.07
2018-03-17T08:54:42.313Z,87.26
2018-03-17T08:55:42.229Z,87.26
2018-03-17T08:56:42.145Z,87.73
2018-03-17T08:57:42.060Z,86.79
2018-03-17T08:58:41.992Z,87.26
2018-03-17T08:59:41.895Z,87.30
2018-03-17T09:00:41.812Z,87.59
2018-03-17T09:01:41.728Z,87.92
2018-03-17T09:02:41.643Z,87.40
2018-03-17T09:03:41.561Z,87.02
2018-03-17T09:04:41.477Z,86.35
2018-03-17T09:05:41.391Z,86.07
2018-03-17T09:06:41.309Z,85.97
2018-03-17T09:07:41.224Z,86.35
2018-03-17T09:08:41.143Z,86.07
2018-03-17T09:09:41.057Z,85.88
2018-03-17T09:10:40.996Z,86.74
2018-03-17T09:11:40.893Z,86.55
2018-03-17T09:12:40.813Z,86.83
2018-03-17T09:13:40.727Z,86.26
2018-03-17T09:14:40.641Z,86.16
2018-03-17T09:15:40.558Z,86.26
2018-03-17T09:16:40.474Z,85.50
2018-03-17T09:17:40.403Z,85.60
2018-03-17T09:18:40.308Z,85.13
2018-03-17T09:19:40.225Z,84.42
2018-03-17T09:20:40.140Z,85.22
2018-03-17T09:21:40.060Z,85.50
2018-03-17T09:22:39.982Z,85.03
2018-03-17T09:23:39.891Z,85.69
2018-03-17T09:24:39.810Z,85.03
2018-03-17T09:25:39.726Z,85.31
2018-03-17T09:26:39.641Z,85.69
2018-03-17T09:27:39.559Z,86.16
2018-03-17T09:28:39.476Z,85.97
2018-03-17T09:29:39.391Z,85.60
2018-03-17T09:30:39.309Z,84.08
2018-03-17T09:31:39.276Z,83.89
2018-03-17T09:32:39.141Z,83.80
2018-03-17T09:33:39.059Z,83.98
2018-03-17T09:34:38.982Z,83.98
2018-03-17T09:35:38.892Z,84.46
2018-03-17T09:36:38.881Z,84.74
2018-03-17T09:37:38.775Z,84.17
2018-03-17T09:38:38.690Z,84.08
2018-03-17T09:39:38.566Z,84.17
2018-03-17T09:40:38.484Z,83.61
2018-03-17T09:41:38.453Z,83.89
2018-03-17T09:42:38.351Z,84.27
2018-03-17T09:43:38.279Z,83.32
2018-03-17T09:44:38.205Z,83.70
2018-03-17T09:45:38.092Z,83.66
2018-03-17T09:46:38.075Z,84.08
2018-03-17T09:47:37.952Z,84.08
2018-03-17T09:48:37.848Z,84.46
2018-03-17T09:49:37.802Z,84.65
2018-03-17T09:50:37.694Z,83.94
2018-03-17T09:51:37.581Z,83.85
2018-03-17T09:52:37.502Z,84.42
2018-03-17T09:53:37.441Z,84.55
2018-03-17T09:54:37.382Z,85.13
2018-03-17T09:55:37.253Z,84.94
2018-03-17T09:56:37.208Z,84.46
2018-03-17T09:57:37.135Z,84.36
2018-03-17T09:58:37.040Z,83.98
2018-03-17T09:59:36.907Z,84.17
2018-03-17T10:00:37.622Z,84.04
2018-03-17T10:01:36.783Z,83.94
2018-03-17T10:02:36.722Z,84.04
2018-03-17T10:03:36.591Z,84.36
2018-03-17T10:04:36.539Z,83.70
2018-03-17T10:05:36.423Z,84.04
2018-03-17T10:06:36.382Z,84.13
2018-03-17T10:07:36.295Z,83.94
2018-03-17T10:08:36.175Z,84.04
2018-03-17T10:09:36.115Z,83.94
2018-03-17T10:10:36.051Z,84.89
2018-03-17T10:11:35.898Z,84.42
2018-03-17T10:12:35.815Z,84.42
2018-03-17T10:13:35.731Z,84.42
2018-03-17T10:14:35.649Z,84.04
2018-03-17T10:15:35.566Z,84.04
2018-03-17T10:16:35.482Z,83.80
2018-03-17T10:17:35.399Z,83.80
2018-03-17T10:18:35.315Z,83.75
2018-03-17T10:19:35.237Z,83.98
2018-03-17T10:20:35.149Z,83.89
2018-03-17T10:21:35.067Z,84.17
2018-03-17T10:22:34.983Z,83.56
2018-03-17T10:23:34.924Z,83.42
2018-03-17T10:24:34.815Z,83.18
2018-03-17T10:25:34.732Z,83.09
2018-03-17T10:26:34.650Z,83.13
2018-03-17T10:27:34.565Z,83.61
2018-03-17T10:28:34.481Z,83.09
2018-03-17T10:29:34.423Z,83.09
2018-03-17T10:30:34.316Z,83.47
2018-03-17T10:31:34.235Z,83.75
2018-03-17T10:32:34.152Z,83.66
2018-03-17T10:33:34.062Z,83.75
2018-03-17T10:34:33.982Z,83.85
2018-03-17T10:35:33.905Z,83.85
2018-03-17T10:36:33.816Z,83.94
2018-03-17T10:37:33.736Z,84.32
2018-03-17T10:38:33.674Z,84.89
2018-03-17T10:39:33.566Z,84.51
2018-03-17T10:40:33.481Z,84.04
2018-03-17T10:41:33.399Z,84.42
2018-03-17T10:42:33.313Z,84.23
2018-03-17T10:43:33.229Z,84.04
2018-03-17T10:44:33.150Z,85.17
2018-03-17T10:45:33.103Z,84.61
2018-03-17T10:46:33.018Z,84.42
2018-03-17T10:47:32.896Z,85.08
2018-03-17T10:48:32.851Z,84.61
2018-03-17T10:49:32.769Z,84.42
2018-03-17T10:50:32.682Z,84.32
2018-03-17T10:51:32.599Z,83.85
2018-03-17T10:52:32.513Z,84.13
2018-03-17T10:53:32.395Z,84.32
2018-03-17T10:54:32.306Z,84.70
2018-03-17T10:55:32.222Z,85.08
2018-03-17T10:56:32.138Z,84.89
2018-03-17T10:57:32.061Z,84.42
2018-03-17T10:58:31.970Z,84.13
2018-03-17T10:59:31.886Z,84.70
2018-03-17T11:00:31.806Z,84.51
2018-03-17T11:02:07.597Z,84.99
2018-03-17T11:02:31.638Z,85.17
2018-03-17T11:03:31.554Z,84.99
2018-03-17T11:04:31.470Z,84.51
2018-03-17T11:05:31.380Z,84.70
2018-03-17T11:06:32.537Z,84.61
2018-03-17T11:07:31.220Z,84.61
2018-03-17T11:08:31.133Z,84.42
2018-03-17T11:09:31.049Z,84.42
2018-03-17T11:10:31.048Z,84.42
2018-03-17T11:11:30.884Z,84.42
2018-03-17T11:12:30.794Z,84.13
2018-03-17T11:13:30.710Z,84.42
2018-03-17T11:14:30.628Z,83.85
2018-03-17T11:15:30.545Z,83.85
2018-03-17T11:16:30.460Z,84.23
2018-03-17T11:17:30.374Z,84.23
2018-03-17T11:18:30.290Z,84.61
2018-03-17T11:19:30.206Z,83.66
2018-03-17T11:20:30.122Z,84.13
2018-03-17T11:21:30.045Z,83.94
2018-03-17T11:22:29.956Z,83.94
2018-03-17T11:23:29.872Z,83.94
2018-03-17T11:24:29.787Z,82.90
2018-03-17T11:25:29.703Z,83.00
2018-03-17T11:26:29.621Z,83.37
2018-03-17T11:27:29.536Z,83.47
2018-03-17T11:28:29.498Z,83.47
2018-03-17T11:29:29.369Z,83.56
2018-03-17T11:30:29.283Z,83.28
2018-03-17T11:31:29.201Z,82.52
2018-03-17T11:32:29.114Z,82.62
2018-03-17T11:33:29.038Z,83.42
2018-03-17T11:34:28.946Z,83.32
2018-03-17T11:35:28.863Z,82.47
2018-03-17T11:36:28.784Z,82.28
2018-03-17T11:37:28.699Z,81.52
2018-03-17T11:38:28.613Z,81.52
2018-03-17T11:39:28.530Z,81.81
2018-03-17T11:40:28.449Z,80.57
2018-03-17T11:41:28.368Z,80.33
2018-03-17T11:42:28.291Z,79.53
2018-03-17T11:43:28.197Z,78.77
2018-03-17T11:44:28.117Z,78.96
2018-03-17T11:45:28.043Z,79.91
2018-03-17T11:46:27.949Z,80.00
2018-03-17T11:47:27.865Z,80.00
2018-03-17T11:48:27.781Z,79.34
2018-03-17T11:49:27.698Z,79.28
2018-03-17T11:50:27.614Z,79.10
2018-03-17T11:51:27.534Z,78.58
2018-03-17T11:52:27.451Z,78.30
2018-03-17T11:53:27.370Z,78.77
2018-03-17T11:54:27.293Z,79.34
2018-03-17T11:55:27.205Z,79.25
2018-03-17T11:56:27.149Z,78.87
2018-03-17T11:57:27.037Z,79.06
2018-03-17T11:58:26.959Z,79.34
2018-03-17T11:59:26.873Z,80.00
2018-03-17T12:00:26.791Z,80.57
2018-03-17T12:01:26.708Z,80.29
2018-03-17T12:02:26.624Z,80.00
2018-03-17T12:03:26.547Z,79.91
2018-03-17T12:04:26.458Z,80.00
2018-03-17T12:05:26.377Z,79.91
2018-03-17T12:06:26.295Z,79.72
2018-03-17T12:07:26.213Z,78.96
2018-03-17T12:08:26.127Z,79.34
2018-03-17T12:09:26.053Z,79.34
2018-03-17T12:10:25.964Z,79.91
2018-03-17T12:11:25.881Z,80.00
2018-03-17T12:12:25.795Z,80.00
2018-03-17T12:13:25.728Z,79.06
2018-03-17T12:14:25.637Z,78.87
2018-03-17T12:15:25.549Z,78.87
2018-03-17T12:16:25.469Z,78.30
2018-03-17T12:17:25.382Z,79.25
2018-03-17T12:18:25.302Z,78.87
2018-03-17T12:19:25.219Z,78.67
2018-03-17T12:20:25.134Z,78.77
2018-03-17T12:21:25.058Z,79.25
2018-03-17T12:22:25.057Z,79.63
2018-03-17T12:23:24.887Z,79.82
2018-03-17T12:24:24.812Z,79.72
2018-03-17T12:25:24.727Z,79.91
2018-03-17T12:26:24.643Z,80.25
2018-03-17T12:27:24.564Z,80.25
2018-03-17T12:28:24.490Z,80.25
2018-03-17T12:29:24.389Z,79.96
2018-03-17T12:30:24.305Z,80.15
2018-03-17T12:31:24.226Z,80.53
2018-03-17T12:32:24.140Z,80.53
2018-03-17T12:33:24.053Z,81.10
2018-03-17T12:34:24.029Z,81.20
2018-03-17T12:35:23.887Z,80.53
2018-03-17T12:36:23.807Z,81.20
2018-03-17T12:37:23.721Z,81.48
2018-03-17T12:38:23.639Z,82.14
2018-03-17T12:39:23.557Z,81.20
2018-03-17T12:40:23.473Z,81.20
2018-03-17T12:41:23.390Z,81.67
2018-03-17T12:42:23.319Z,81.48
2018-03-17T12:43:23.220Z,81.10
2018-03-17T12:44:23.137Z,80.82
2018-03-17T12:45:23.051Z,81.10
2018-03-17T12:46:22.973Z,81.01
2018-03-17T12:47:22.886Z,80.63
2018-03-17T12:48:22.803Z,80.53
2018-03-17T12:49:22.717Z,80.72
2018-03-17T12:50:22.635Z,80.44
2018-03-17T12:51:22.555Z,80.44